createdAt,value
2019-05-15T00:00:34.977Z,1017.80
2019-05-15T00:01:34.928Z,1017.72
2019-05-15T00:02:34.870Z,1017.74
2019-05-15T00:03:34.816Z,1017.72
2019-05-15T00:04:34.789Z,1017.76
2019-05-15T00:05:34.718Z,1017.70
2019-05-15T00:06:34.670Z,1017.71
2019-05-15T00:07:34.606Z,1017.73
2019-05-15T00:08:34.554Z,1017.72
2019-05-15T00:09:34.523Z,1017.71
2019-05-15T00:10:34.448Z,1017.72
2019-05-15T00:11:34.393Z,1017.71
2019-05-15T00:12:34.347Z,1017.69
2019-05-15T00:13:34.302Z,1017.68
2019-05-15T00:14:34.264Z,1017.65
2019-05-15T00:15:34.179Z,1017.68
2019-05-15T00:16:34.127Z,1017.65
2019-05-15T00:17:34.072Z,1017.69
2019-05-15T00:18:34.021Z,1017.68
2019-05-15T00:19:33.993Z,1017.63
2019-05-15T00:20:33.911Z,1017.68
2019-05-15T00:21:33.861Z,1017.70
2019-05-15T00:22:33.810Z,1017.69
2019-05-15T00:23:33.754Z,1017.71
2019-05-15T00:24:33.725Z,1017.71
2019-05-15T00:25:33.646Z,1017.72
2019-05-15T00:26:33.593Z,1017.69
2019-05-15T00:27:33.546Z,1017.70
2019-05-15T00:28:33.487Z,1017.69
2019-05-15T00:29:33.459Z,1017.69
2019-05-15T00:30:33.379Z,1017.69
2019-05-15T00:31:33.328Z,1017.62
2019-05-15T00:32:33.273Z,1017.68
2019-05-15T00:33:33.221Z,1017.66
2019-05-15T00:34:33.211Z,1017.67
2019-05-15T00:35:33.114Z,1017.65
2019-05-15T00:36:33.059Z,1017.62
2019-05-15T00:37:33.012Z,1017.65
2019-05-15T00:38:32.950Z,1017.64
2019-05-15T00:39:32.903Z,1017.68
2019-05-15T00:40:32.872Z,1017.69
2019-05-15T00:41:32.798Z,1017.69
2019-05-15T00:42:32.739Z,1017.69
2019-05-15T00:43:32.691Z,1017.64
2019-05-15T00:44:32.648Z,1017.70
2019-05-15T00:45:32.604Z,1017.64
2019-05-15T00:46:32.529Z,1017.67
2019-05-15T00:47:32.474Z,1017.68
2019-05-15T00:48:32.431Z,1017.64
2019-05-15T00:49:32.367Z,1017.65
2019-05-15T00:50:32.340Z,1017.63
2019-05-15T00:51:32.275Z,1017.66
2019-05-15T00:52:32.206Z,1017.63
2019-05-15T00:53:32.153Z,1017.60
2019-05-15T00:54:32.098Z,1017.57
2019-05-15T00:55:32.066Z,1017.56
2019-05-15T00:56:31.997Z,1017.61
2019-05-15T00:57:31.937Z,1017.58
2019-05-15T00:58:31.885Z,1017.57
2019-05-15T00:59:31.834Z,1017.57
2019-05-15T01:00:31.802Z,1017.52
2019-05-15T01:01:31.728Z,1017.54
2019-05-15T01:02:39.385Z,1017.47
2019-05-15T01:03:31.620Z,1017.50
2019-05-15T01:04:31.565Z,1017.48
2019-05-15T01:05:31.541Z,1017.46
2019-05-15T01:06:31.473Z,1017.46
2019-05-15T01:07:31.405Z,1017.48
2019-05-15T01:08:31.402Z,1017.48
2019-05-15T01:09:31.299Z,1017.45
2019-05-15T01:10:31.269Z,1017.42
2019-05-15T01:11:31.189Z,1017.43
2019-05-15T01:12:31.138Z,1017.46
2019-05-15T01:13:31.085Z,1017.44
2019-05-15T01:14:31.038Z,1017.44
2019-05-15T01:15:31.004Z,1017.40
2019-05-15T01:16:30.925Z,1017.40
2019-05-15T01:17:30.869Z,1017.38
2019-05-15T01:18:30.820Z,1017.37
2019-05-15T01:19:30.762Z,1017.39
2019-05-15T01:20:30.734Z,1017.36
2019-05-15T01:21:30.658Z,1017.39
2019-05-15T01:22:30.601Z,1017.41
2019-05-15T01:23:30.549Z,1017.41
2019-05-15T01:24:30.498Z,1017.42
2019-05-15T01:25:30.465Z,1017.42
2019-05-15T01:26:30.387Z,1017.43
2019-05-15T01:27:30.335Z,1017.46
2019-05-15T01:28:30.281Z,1017.45
2019-05-15T01:29:40.539Z,1017.42
2019-05-15T01:30:30.193Z,1017.37
2019-05-15T01:31:30.119Z,1017.39
2019-05-15T01:32:30.063Z,1017.39
2019-05-15T01:33:30.014Z,1017.37
2019-05-15T01:34:29.953Z,1017.38
2019-05-15T01:35:29.934Z,1017.42
2019-05-15T01:36:29.851Z,1017.42
2019-05-15T01:37:29.797Z,1017.43
2019-05-15T01:38:29.742Z,1017.41
2019-05-15T01:39:29.686Z,1017.40
2019-05-15T01:40:29.672Z,1017.39
2019-05-15T01:41:29.584Z,1017.40
2019-05-15T01:42:29.529Z,1017.40
2019-05-15T01:43:29.480Z,1017.38
2019-05-15T01:44:29.417Z,1017.38
2019-05-15T01:45:29.391Z,1017.42
2019-05-15T01:46:29.311Z,1017.35
2019-05-15T01:47:29.260Z,1017.38
2019-05-15T01:48:29.207Z,1017.36
2019-05-15T01:49:29.156Z,1017.31
2019-05-15T01:50:29.265Z,1017.32
2019-05-15T01:51:29.042Z,1017.35
2019-05-15T01:52:28.998Z,1017.35
2019-05-15T01:53:29.177Z,1017.32
2019-05-15T01:54:29.076Z,1017.31
2019-05-15T01:55:28.852Z,1017.33
2019-05-15T01:56:29.338Z,1017.32
2019-05-15T01:57:28.858Z,1017.30
2019-05-15T01:58:28.876Z,1017.31
2019-05-15T01:59:28.610Z,1017.27
2019-05-15T02:00:28.613Z,1017.25
2019-05-15T02:01:28.535Z,1017.26
2019-05-15T02:02:28.453Z,1017.23
2019-05-15T02:03:29.026Z,1017.24
2019-05-15T02:04:28.965Z,1017.19
2019-05-15T02:05:28.407Z,1017.21
2019-05-15T02:06:28.605Z,1017.21
2019-05-15T02:07:28.186Z,1017.22
2019-05-15T02:08:28.622Z,1017.23
2019-05-15T02:09:28.147Z,1017.23
2019-05-15T02:10:29.188Z,1017.24
2019-05-15T02:11:28.867Z,1017.22
2019-05-15T02:12:28.570Z,1017.20
2019-05-15T02:13:28.346Z,1017.21
2019-05-15T02:14:28.466Z,1017.19
2019-05-15T02:15:28.512Z,1017.16
2019-05-15T02:16:28.639Z,1017.21
2019-05-15T02:17:28.304Z,1017.18
2019-05-15T02:18:28.588Z,1017.14
2019-05-15T02:19:28.751Z,1017.19
2019-05-15T02:20:29.167Z,1017.23
2019-05-15T02:21:28.810Z,1017.20
2019-05-15T02:22:28.302Z,1017.17
2019-05-15T02:23:28.077Z,1017.19
2019-05-15T02:24:28.423Z,1017.22
2019-05-15T02:25:28.062Z,1017.21
2019-05-15T02:26:28.196Z,1017.18
2019-05-15T02:27:28.832Z,1017.20
2019-05-15T02:28:28.888Z,1017.21
2019-05-15T02:29:28.596Z,1017.20
2019-05-15T02:30:30.245Z,1017.22
2019-05-15T02:31:29.827Z,1017.22
2019-05-15T02:32:29.911Z,1017.19
2019-05-15T02:33:29.801Z,1017.22
2019-05-15T02:34:29.892Z,1017.21
2019-05-15T02:35:29.425Z,1017.16
2019-05-15T02:36:29.375Z,1017.20
2019-05-15T02:37:29.357Z,1017.18
2019-05-15T02:38:29.576Z,1017.19
2019-05-15T02:39:28.967Z,1017.18
2019-05-15T02:40:29.188Z,1017.20
2019-05-15T02:41:29.593Z,1017.16
2019-05-15T02:42:28.917Z,1017.18
2019-05-15T02:43:29.525Z,1017.14
2019-05-15T02:44:28.914Z,1017.16
2019-05-15T02:45:26.132Z,1017.18
2019-05-15T02:46:26.100Z,1017.17
2019-05-15T02:47:28.893Z,1017.16
2019-05-15T02:48:28.689Z,1017.22
2019-05-15T02:49:25.915Z,1017.22
2019-05-15T02:50:28.887Z,1017.21
2019-05-15T02:51:25.823Z,1017.23
2019-05-15T02:52:25.760Z,1017.22
2019-05-15T02:53:25.692Z,1017.18
2019-05-15T02:54:25.650Z,1017.18
2019-05-15T02:55:25.588Z,1017.22
2019-05-15T02:56:25.555Z,1017.20
2019-05-15T02:57:25.474Z,1017.19
2019-05-15T02:58:25.426Z,1017.19
2019-05-15T02:59:28.840Z,1017.21
2019-05-15T03:00:37.992Z,1017.20
2019-05-15T03:01:25.289Z,1017.18
2019-05-15T03:02:25.205Z,1017.16
2019-05-15T03:03:25.158Z,1017.19
2019-05-15T03:04:25.099Z,1017.17
2019-05-15T03:05:25.043Z,1017.13
2019-05-15T03:06:25.017Z,1017.12
2019-05-15T03:07:24.935Z,1017.11
2019-05-15T03:08:24.899Z,1017.06
2019-05-15T03:09:24.826Z,1017.08
2019-05-15T03:10:24.776Z,1017.10
2019-05-15T03:11:24.752Z,1017.05
2019-05-15T03:12:24.666Z,1017.08
2019-05-15T03:13:24.616Z,1017.07
2019-05-15T03:14:24.554Z,1017.04
2019-05-15T03:15:24.502Z,1017.09
2019-05-15T03:16:24.470Z,1017.11
2019-05-15T03:17:24.390Z,1017.11
2019-05-15T03:18:24.336Z,1017.13
2019-05-15T03:19:24.295Z,1017.12
2019-05-15T03:20:24.305Z,1017.10
2019-05-15T03:21:24.219Z,1017.10
2019-05-15T03:22:24.121Z,1017.06
2019-05-15T03:23:24.075Z,1017.09
2019-05-15T03:24:24.012Z,1017.04
2019-05-15T03:25:23.962Z,1017.10
2019-05-15T03:26:23.906Z,1017.06
2019-05-15T03:27:23.875Z,1017.08
2019-05-15T03:28:23.792Z,1017.10
2019-05-15T03:29:23.738Z,1017.01
2019-05-15T03:30:23.690Z,1017.02
2019-05-15T03:31:43.593Z,1017.02
2019-05-15T03:32:34.176Z,1017.04
2019-05-15T03:33:27.943Z,1017.05
2019-05-15T03:34:30.946Z,1017.11
2019-05-15T03:35:23.612Z,1017.06
2019-05-15T03:36:24.533Z,1017.01
2019-05-15T03:37:23.345Z,1017.10
2019-05-15T03:38:23.259Z,1017.05
2019-05-15T03:39:23.198Z,1017.05
2019-05-15T03:40:23.153Z,1017.06
2019-05-15T03:41:23.085Z,1017.03
2019-05-15T03:42:23.064Z,1017.04
2019-05-15T03:43:22.992Z,1017.06
2019-05-15T03:44:22.937Z,1017.01
2019-05-15T03:45:22.873Z,1017.06
2019-05-15T03:46:22.818Z,1017.04
2019-05-15T03:47:22.786Z,1017.01
2019-05-15T03:48:22.707Z,1017.02
2019-05-15T03:49:22.656Z,1017.02
2019-05-15T03:50:22.602Z,1016.99
2019-05-15T03:51:22.540Z,1017.04
2019-05-15T03:52:22.514Z,1017.02
2019-05-15T03:53:22.435Z,1017.01
2019-05-15T03:54:22.383Z,1017.02
2019-05-15T03:55:22.328Z,1017.03
2019-05-15T03:56:22.277Z,1016.98
2019-05-15T03:57:23.323Z,1017.01
2019-05-15T03:58:22.170Z,1017.07
2019-05-15T03:59:22.108Z,1017.04
2019-05-15T04:00:22.070Z,1017.03
2019-05-15T04:01:34.083Z,1017.01
2019-05-15T04:02:21.969Z,1017.03
2019-05-15T04:03:21.891Z,1017.06
2019-05-15T04:04:21.840Z,1017.04
2019-05-15T04:05:21.785Z,1017.08
2019-05-15T04:06:21.742Z,1017.11
2019-05-15T04:07:21.698Z,1017.09
2019-05-15T04:08:21.626Z,1017.10
2019-05-15T04:09:21.564Z,1017.15
2019-05-15T04:10:21.516Z,1017.18
2019-05-15T04:11:21.453Z,1017.18
2019-05-15T04:12:21.431Z,1017.17
2019-05-15T04:13:21.348Z,1017.18
2019-05-15T04:14:21.299Z,1017.23
2019-05-15T04:15:21.234Z,1017.18
2019-05-15T04:16:21.185Z,1017.22
2019-05-15T04:17:21.163Z,1017.21
2019-05-15T04:18:21.077Z,1017.25
2019-05-15T04:19:21.020Z,1017.26
2019-05-15T04:20:20.969Z,1017.26
2019-05-15T04:21:20.917Z,1017.26
2019-05-15T04:22:20.888Z,1017.22
2019-05-15T04:23:20.804Z,1017.23
2019-05-15T04:24:20.757Z,1017.19
2019-05-15T04:25:20.711Z,1017.24
2019-05-15T04:26:20.650Z,1017.24
2019-05-15T04:27:22.366Z,1017.23
2019-05-15T04:28:20.535Z,1017.20
2019-05-15T04:29:20.489Z,1017.18
2019-05-15T04:30:20.433Z,1017.19
2019-05-15T04:31:20.387Z,1017.23
2019-05-15T04:32:20.382Z,1017.21
2019-05-15T04:33:20.291Z,1017.20
2019-05-15T04:34:20.218Z,1017.23
2019-05-15T04:35:20.166Z,1017.21
2019-05-15T04:36:20.122Z,1017.24
2019-05-15T04:37:20.100Z,1017.23
2019-05-15T04:38:20.002Z,1017.22
2019-05-15T04:39:19.951Z,1017.26
2019-05-15T04:40:19.899Z,1017.24
2019-05-15T04:41:20.189Z,1017.24
2019-05-15T04:42:20.425Z,1017.26
2019-05-15T04:43:19.774Z,1017.26
2019-05-15T04:44:19.691Z,1017.25
2019-05-15T04:45:19.766Z,1017.33
2019-05-15T04:46:19.990Z,1017.27
2019-05-15T04:47:19.577Z,1017.27
2019-05-15T04:48:20.186Z,1017.31
2019-05-15T04:49:19.486Z,1017.25
2019-05-15T04:50:19.451Z,1017.32
2019-05-15T04:51:19.321Z,1017.32
2019-05-15T04:52:19.543Z,1017.31
2019-05-15T04:53:19.459Z,1017.28
2019-05-15T04:54:20.020Z,1017.32
2019-05-15T04:55:19.586Z,1017.29
2019-05-15T04:56:19.384Z,1017.29
2019-05-15T04:57:19.480Z,1017.27
2019-05-15T04:58:20.701Z,1017.25
2019-05-15T04:59:19.463Z,1017.26
2019-05-15T05:00:19.826Z,1017.26
2019-05-15T05:01:20.051Z,1017.26
2019-05-15T05:02:26.834Z,1017.28
2019-05-15T05:04:50.211Z,1017.30
2019-05-15T05:05:50.430Z,1017.26
2019-05-15T05:06:50.070Z,1017.24
2019-05-15T05:07:50.056Z,1017.24
2019-05-15T05:08:49.976Z,1017.20
2019-05-15T05:09:49.914Z,1017.22
2019-05-15T05:10:49.867Z,1017.24
2019-05-15T05:11:49.806Z,1017.20
2019-05-15T05:12:50.849Z,1017.22
2019-05-15T05:13:49.729Z,1017.24
2019-05-15T05:14:49.652Z,1017.26
2019-05-15T05:15:50.326Z,1017.26
2019-05-15T05:16:49.545Z,1017.27
2019-05-15T05:17:49.493Z,1017.30
2019-05-15T05:18:49.467Z,1017.31
2019-05-15T05:19:51.378Z,1017.31
2019-05-15T05:20:49.335Z,1017.35
2019-05-15T05:21:49.284Z,1017.34
2019-05-15T05:22:49.232Z,1017.36
2019-05-15T05:23:49.198Z,1017.38
2019-05-15T05:24:49.126Z,1017.39
2019-05-15T05:25:49.527Z,1017.43
2019-05-15T05:26:49.265Z,1017.45
2019-05-15T05:27:48.967Z,1017.47
2019-05-15T05:28:49.158Z,1017.48
2019-05-15T05:29:48.864Z,1017.49
2019-05-15T05:30:48.817Z,1017.53
2019-05-15T05:31:49.275Z,1017.54
2019-05-15T05:32:48.818Z,1017.51
2019-05-15T05:33:48.835Z,1017.51
2019-05-15T05:34:48.608Z,1017.51
2019-05-15T05:35:48.977Z,1017.54
2019-05-15T05:36:48.508Z,1017.57
2019-05-15T05:37:48.450Z,1017.52
2019-05-15T05:38:49.324Z,1017.58
2019-05-15T05:39:48.445Z,1017.60
2019-05-15T05:40:49.481Z,1017.57
2019-05-15T05:41:48.667Z,1017.56
2019-05-15T05:42:48.196Z,1017.55
2019-05-15T05:43:48.769Z,1017.58
2019-05-15T05:44:48.853Z,1017.57
2019-05-15T05:45:49.146Z,1017.55
2019-05-15T05:46:48.800Z,1017.59
2019-05-15T05:47:48.709Z,1017.56
2019-05-15T05:48:48.961Z,1017.57
2019-05-15T05:49:48.829Z,1017.57
2019-05-15T05:50:49.680Z,1017.53
2019-05-15T05:51:48.211Z,1017.54
2019-05-15T05:52:49.073Z,1017.61
2019-05-15T05:53:48.062Z,1017.58
2019-05-15T05:54:49.068Z,1017.55
2019-05-15T05:55:49.170Z,1017.54
2019-05-15T05:56:48.299Z,1017.58
2019-05-15T05:57:48.716Z,1017.62
2019-05-15T05:58:49.196Z,1017.58
2019-05-15T05:59:48.964Z,1017.57
2019-05-15T06:00:48.888Z,1017.57
2019-05-15T06:01:48.379Z,1017.57
2019-05-15T06:02:51.915Z,1017.54
2019-05-15T06:03:49.068Z,1017.54
2019-05-15T06:04:47.950Z,1017.54
2019-05-15T06:05:49.470Z,1017.53
2019-05-15T06:06:50.179Z,1017.54
2019-05-15T06:07:48.717Z,1017.57
2019-05-15T06:08:48.038Z,1017.57
2019-05-15T06:09:48.592Z,1017.55
2019-05-15T06:10:49.197Z,1017.57
2019-05-15T06:11:48.670Z,1017.49
2019-05-15T06:12:48.923Z,1017.50
2019-05-15T06:13:51.018Z,1017.49
2019-05-15T06:14:48.485Z,1017.48
2019-05-15T06:15:48.941Z,1017.49
2019-05-15T06:16:48.203Z,1017.51
2019-05-15T06:17:48.106Z,1017.56
2019-05-15T06:18:48.941Z,1017.50
2019-05-15T06:19:48.157Z,1017.51
2019-05-15T06:20:46.250Z,1017.55
2019-05-15T06:21:54.611Z,1017.52
2019-05-15T06:22:47.889Z,1017.59
2019-05-15T06:23:53.129Z,1017.52
2019-05-15T06:24:48.382Z,1017.57
2019-05-15T06:25:48.411Z,1017.56
2019-05-15T06:26:48.002Z,1017.56
2019-05-15T06:27:48.044Z,1017.55
2019-05-15T06:28:48.461Z,1017.58
2019-05-15T06:29:45.814Z,1017.53
2019-05-15T06:30:45.734Z,1017.53
2019-05-15T06:31:45.683Z,1017.55
2019-05-15T06:33:02.039Z,1017.53
2019-05-15T06:33:45.581Z,1017.53
2019-05-15T06:34:45.657Z,1017.53
2019-05-15T06:35:45.477Z,1017.55
2019-05-15T06:36:45.427Z,1017.57
2019-05-15T06:37:45.386Z,1017.58
2019-05-15T06:38:45.327Z,1017.57
2019-05-15T06:39:45.299Z,1017.52
2019-05-15T06:40:45.222Z,1017.51
2019-05-15T06:41:45.173Z,1017.53
2019-05-15T06:42:45.122Z,1017.54
2019-05-15T06:43:45.071Z,1017.47
2019-05-15T06:44:45.043Z,1017.47
2019-05-15T06:45:44.964Z,1017.50
2019-05-15T06:46:44.916Z,1017.53
2019-05-15T06:47:44.868Z,1017.47
2019-05-15T06:48:44.814Z,1017.48
2019-05-15T06:49:44.784Z,1017.52
2019-05-15T06:50:44.711Z,1017.46
2019-05-15T06:51:44.660Z,1017.51
2019-05-15T06:52:44.615Z,1017.48
2019-05-15T06:53:44.561Z,1017.45
2019-05-15T06:54:44.535Z,1017.55
2019-05-15T06:55:44.458Z,1017.50
2019-05-15T06:56:44.406Z,1017.50
2019-05-15T06:57:44.355Z,1017.43
2019-05-15T06:58:44.303Z,1017.42
2019-05-15T06:59:44.277Z,1017.45
2019-05-15T07:00:44.212Z,1017.45
2019-05-15T07:01:44.151Z,1017.46
2019-05-15T07:02:44.110Z,1017.46
2019-05-15T07:03:44.050Z,1017.45
2019-05-15T07:04:44.027Z,1017.46
2019-05-15T07:05:43.952Z,1017.47
2019-05-15T07:06:43.902Z,1017.54
2019-05-15T07:07:43.852Z,1017.54
2019-05-15T07:08:43.802Z,1017.49
2019-05-15T07:09:43.776Z,1017.49
2019-05-15T07:10:43.699Z,1017.46
2019-05-15T07:11:43.655Z,1017.46
2019-05-15T07:12:43.600Z,1017.52
2019-05-15T07:13:43.545Z,1017.45
2019-05-15T07:14:43.554Z,1017.49
2019-05-15T07:15:43.448Z,1017.50
2019-05-15T07:16:43.399Z,1017.52
2019-05-15T07:17:43.344Z,1017.44
2019-05-15T07:18:43.290Z,1017.47
2019-05-15T07:19:43.286Z,1017.50
2019-05-15T07:20:43.193Z,1017.47
2019-05-15T07:21:43.142Z,1017.39
2019-05-15T07:22:43.093Z,1017.38
2019-05-15T07:23:43.044Z,1017.38
2019-05-15T07:24:43.016Z,1017.43
2019-05-15T07:25:42.941Z,1017.41
2019-05-15T07:26:42.892Z,1017.37
2019-05-15T07:27:42.837Z,1017.36
2019-05-15T07:28:42.787Z,1017.39
2019-05-15T07:29:42.755Z,1017.32
2019-05-15T07:30:42.693Z,1017.34
2019-05-15T07:31:42.642Z,1017.36
2019-05-15T07:32:42.595Z,1017.37
2019-05-15T07:33:43.764Z,1017.36
2019-05-15T07:34:42.513Z,1017.40
2019-05-15T07:35:42.435Z,1017.37
2019-05-15T07:36:42.388Z,1017.39
2019-05-15T07:37:42.337Z,1017.38
2019-05-15T07:38:42.285Z,1017.36
2019-05-15T07:39:42.257Z,1017.33
2019-05-15T07:40:42.187Z,1017.31
2019-05-15T07:41:42.134Z,1017.29
2019-05-15T07:42:42.087Z,1017.27
2019-05-15T07:43:42.035Z,1017.30
2019-05-15T07:44:42.012Z,1017.30
2019-05-15T07:45:44.214Z,1017.38
2019-05-15T07:46:41.886Z,1017.36
2019-05-15T07:47:41.837Z,1017.25
2019-05-15T07:48:43.962Z,1017.25
2019-05-15T07:49:41.736Z,1017.29
2019-05-15T07:50:41.709Z,1017.26
2019-05-15T07:51:41.640Z,1017.29
2019-05-15T07:52:41.581Z,1017.24
2019-05-15T07:53:41.536Z,1017.24
2019-05-15T07:54:41.483Z,1017.22
2019-05-15T07:55:41.457Z,1017.21
2019-05-15T07:56:41.383Z,1017.29
2019-05-15T07:57:41.332Z,1017.21
2019-05-15T07:58:41.281Z,1017.23
2019-05-15T07:59:41.247Z,1017.17
2019-05-15T08:00:41.205Z,1017.18
2019-05-15T08:01:41.139Z,1017.13
2019-05-15T08:02:41.079Z,1017.09
2019-05-15T08:03:55.355Z,1017.13
2019-05-15T08:04:40.982Z,1017.14
2019-05-15T08:05:55.188Z,1017.11
2019-05-15T08:06:40.882Z,1017.19
2019-05-15T08:07:40.847Z,1017.16
2019-05-15T08:08:40.779Z,1017.18
2019-05-15T08:09:40.731Z,1017.12
2019-05-15T08:10:40.705Z,1017.18
2019-05-15T08:11:40.631Z,1017.20
2019-05-15T08:12:40.584Z,1017.12
2019-05-15T08:13:40.536Z,1017.15
2019-05-15T08:14:40.487Z,1017.08
2019-05-15T08:15:40.459Z,1017.14
2019-05-15T08:16:40.381Z,1017.11
2019-05-15T08:17:58.532Z,1017.10
2019-05-15T08:18:40.287Z,1017.09
2019-05-15T08:19:40.237Z,1017.08
2019-05-15T08:20:40.207Z,1017.17
2019-05-15T08:21:40.131Z,1017.08
2019-05-15T08:22:40.088Z,1017.03
2019-05-15T08:23:40.035Z,1017.10
2019-05-15T08:24:39.981Z,1017.06
2019-05-15T08:25:40.064Z,1017.08
2019-05-15T08:26:44.851Z,1017.02
2019-05-15T08:27:39.841Z,1017.03
2019-05-15T08:28:39.783Z,1016.92
2019-05-15T08:29:39.731Z,1016.94
2019-05-15T08:30:39.833Z,1016.98
2019-05-15T08:31:39.633Z,1016.97
2019-05-15T08:32:39.582Z,1016.91
2019-05-15T08:33:39.530Z,1016.94
2019-05-15T08:34:39.485Z,1017.03
2019-05-15T08:35:39.461Z,1017.04
2019-05-15T08:36:39.389Z,1017.01
2019-05-15T08:37:39.334Z,1017.01
2019-05-15T08:38:39.283Z,1016.99
2019-05-15T08:39:39.239Z,1016.95
2019-05-15T08:40:41.070Z,1016.96
2019-05-15T08:41:39.379Z,1016.91
2019-05-15T08:42:41.584Z,1016.93
2019-05-15T08:43:39.032Z,1016.92
2019-05-15T08:44:38.981Z,1016.96
2019-05-15T08:45:39.230Z,1016.90
2019-05-15T08:46:38.928Z,1016.90
2019-05-15T08:47:38.848Z,1016.89
2019-05-15T08:48:38.783Z,1016.84
2019-05-15T08:49:41.023Z,1016.85
2019-05-15T08:50:39.115Z,1016.88
2019-05-15T08:51:38.633Z,1016.90
2019-05-15T08:52:39.281Z,1016.80
2019-05-15T08:53:38.537Z,1016.89
2019-05-15T08:54:38.483Z,1016.90
2019-05-15T08:55:39.114Z,1016.82
2019-05-15T08:56:39.351Z,1016.75
2019-05-15T08:57:38.535Z,1016.85
2019-05-15T08:58:38.407Z,1016.78
2019-05-15T08:59:38.260Z,1016.77
2019-05-15T09:00:40.164Z,1016.72
2019-05-15T09:01:38.377Z,1016.79
2019-05-15T09:02:38.383Z,1016.77
2019-05-15T09:03:38.232Z,1016.72
2019-05-15T09:04:38.716Z,1016.83
2019-05-15T09:05:38.802Z,1016.77
2019-05-15T09:06:41.292Z,1016.82
2019-05-15T09:07:38.342Z,1016.81
2019-05-15T09:08:39.063Z,1016.74
2019-05-15T09:09:38.354Z,1016.73
2019-05-15T09:10:38.556Z,1016.71
2019-05-15T09:11:38.986Z,1016.66
2019-05-15T09:12:38.854Z,1016.72
2019-05-15T09:13:42.971Z,1016.67
2019-05-15T09:14:38.085Z,1016.71
2019-05-15T09:15:39.605Z,1016.66
2019-05-15T09:16:38.789Z,1016.70
2019-05-15T09:17:39.920Z,1016.58
2019-05-15T09:18:39.126Z,1016.62
2019-05-15T09:19:38.742Z,1016.59
2019-05-15T09:20:38.380Z,1016.48
2019-05-15T09:21:38.752Z,1016.43
2019-05-15T09:22:38.292Z,1016.55
2019-05-15T09:23:38.901Z,1016.51
2019-05-15T09:24:37.934Z,1016.54
2019-05-15T09:25:38.847Z,1016.44
2019-05-15T09:26:40.113Z,1016.42
2019-05-15T09:27:38.261Z,1016.48
2019-05-15T09:28:39.127Z,1016.44
2019-05-15T09:29:38.071Z,1016.48
2019-05-15T09:30:38.918Z,1016.43
2019-05-15T09:31:38.995Z,1016.49
2019-05-15T09:32:38.948Z,1016.43
2019-05-15T09:33:38.705Z,1016.44
2019-05-15T09:34:48.061Z,1016.42
2019-05-15T09:35:36.433Z,1016.39
2019-05-15T09:36:36.426Z,1016.49
2019-05-15T09:37:38.562Z,1016.40
2019-05-15T09:38:38.840Z,1016.35
2019-05-15T09:39:38.130Z,1016.39
2019-05-15T09:40:45.198Z,1016.37
2019-05-15T09:41:38.023Z,1016.37
2019-05-15T09:42:38.637Z,1016.38
2019-05-15T09:43:38.274Z,1016.36
2019-05-15T09:44:35.989Z,1016.30
2019-05-15T09:45:37.986Z,1016.34
2019-05-15T09:46:38.136Z,1016.31
2019-05-15T09:47:39.168Z,1016.31
2019-05-15T09:48:35.796Z,1016.33
2019-05-15T09:49:35.737Z,1016.41
2019-05-15T09:50:35.688Z,1016.40
2019-05-15T09:51:38.321Z,1016.41
2019-05-15T09:52:35.589Z,1016.39
2019-05-15T09:53:35.540Z,1016.37
2019-05-15T09:54:38.499Z,1016.38
2019-05-15T09:55:37.996Z,1016.26
2019-05-15T09:56:35.415Z,1016.36
2019-05-15T09:57:35.352Z,1016.31
2019-05-15T09:58:35.291Z,1016.26
2019-05-15T09:59:35.241Z,1016.25
2019-05-15T10:00:35.191Z,1016.33
2019-05-15T10:01:35.165Z,1016.41
2019-05-15T10:02:35.098Z,1016.21
2019-05-15T10:03:35.039Z,1016.21
2019-05-15T10:04:34.996Z,1016.16
2019-05-15T10:05:34.947Z,1016.15
2019-05-15T10:06:34.927Z,1016.07
2019-05-15T10:07:34.846Z,1016.07
2019-05-15T10:08:34.797Z,1016.05
2019-05-15T10:09:34.746Z,1016.08
2019-05-15T10:10:34.700Z,1015.94
2019-05-15T10:11:34.674Z,1016.02
2019-05-15T10:12:35.369Z,1016.00
2019-05-15T10:13:34.555Z,1015.93
2019-05-15T10:14:34.511Z,1016.00
2019-05-15T10:15:34.456Z,1016.03
2019-05-15T10:16:34.442Z,1015.95
2019-05-15T10:17:34.360Z,1015.96
2019-05-15T10:18:34.309Z,1015.99
2019-05-15T10:19:34.263Z,1016.05
2019-05-15T10:20:34.212Z,1016.01
2019-05-15T10:21:34.179Z,1015.88
2019-05-15T10:22:34.119Z,1015.88
2019-05-15T10:23:34.063Z,1015.89
2019-05-15T10:24:34.010Z,1015.95
2019-05-15T10:25:33.963Z,1015.90
2019-05-15T10:26:33.940Z,1015.81
2019-05-15T10:27:33.861Z,1015.82
2019-05-15T10:28:33.820Z,1015.80
2019-05-15T10:29:33.768Z,1015.86
2019-05-15T10:30:33.719Z,1015.81
2019-05-15T10:31:33.699Z,1015.80
2019-05-15T10:32:33.648Z,1015.85
2019-05-15T10:33:33.574Z,1015.74
2019-05-15T10:34:33.623Z,1015.76
2019-05-15T10:35:33.474Z,1015.68
2019-05-15T10:36:33.426Z,1015.72
2019-05-15T10:37:33.404Z,1015.72
2019-05-15T10:38:33.326Z,1015.76
2019-05-15T10:39:33.280Z,1015.66
2019-05-15T10:40:33.230Z,1015.62
2019-05-15T10:41:33.181Z,1015.63
2019-05-15T10:42:33.160Z,1015.66
2019-05-15T10:43:33.083Z,1015.64
2019-05-15T10:44:33.039Z,1015.62
2019-05-15T10:45:32.992Z,1015.62
2019-05-15T10:46:32.942Z,1015.62
2019-05-15T10:47:32.908Z,1015.62
2019-05-15T10:48:32.921Z,1015.60
2019-05-15T10:49:32.791Z,1015.57
2019-05-15T10:50:32.743Z,1015.58
2019-05-15T10:51:32.691Z,1015.53
2019-05-15T10:52:32.670Z,1015.51
2019-05-15T10:53:32.595Z,1015.49
2019-05-15T10:54:32.546Z,1015.47
2019-05-15T10:55:32.500Z,1015.42
2019-05-15T10:56:41.473Z,1015.52
2019-05-15T10:57:32.427Z,1015.48
2019-05-15T10:58:32.411Z,1015.44
2019-05-15T10:59:32.297Z,1015.43
2019-05-15T11:00:32.250Z,1015.47
2019-05-15T11:01:32.195Z,1015.44
2019-05-15T11:02:32.193Z,1015.40
2019-05-15T11:03:34.880Z,1015.38
2019-05-15T11:04:32.047Z,1015.33
2019-05-15T11:05:44.643Z,1015.29
2019-05-15T11:06:31.953Z,1015.38
2019-05-15T11:07:31.927Z,1015.40
2019-05-15T11:08:32.005Z,1015.30
2019-05-15T11:09:31.813Z,1015.30
2019-05-15T11:10:31.765Z,1015.46
2019-05-15T11:11:31.707Z,1015.35
2019-05-15T11:12:31.684Z,1015.38
2019-05-15T11:13:31.610Z,1015.38
2019-05-15T11:14:31.555Z,1015.39
2019-05-15T11:15:31.513Z,1015.51
2019-05-15T11:16:31.459Z,1015.38
2019-05-15T11:17:31.696Z,1015.48
2019-05-15T11:18:31.369Z,1015.51
2019-05-15T11:19:35.910Z,1015.41
2019-05-15T11:20:31.261Z,1015.42
2019-05-15T11:21:31.222Z,1015.51
2019-05-15T11:22:31.190Z,1015.46
2019-05-15T11:23:31.115Z,1015.37
2019-05-15T11:24:32.378Z,1015.35
2019-05-15T11:25:31.020Z,1015.33
2019-05-15T11:26:33.611Z,1015.26
2019-05-15T11:27:31.282Z,1015.27
2019-05-15T11:28:32.348Z,1015.30
2019-05-15T11:29:30.819Z,1015.27
2019-05-15T11:30:30.771Z,1015.19
2019-05-15T11:31:30.739Z,1015.18
2019-05-15T11:32:30.695Z,1015.27
2019-05-15T11:33:30.623Z,1015.27
2019-05-15T11:34:30.575Z,1015.20
2019-05-15T11:35:30.523Z,1015.20
2019-05-15T11:36:30.471Z,1015.26
2019-05-15T11:37:30.447Z,1015.26
2019-05-15T11:38:30.375Z,1015.24
2019-05-15T11:39:30.390Z,1015.08
2019-05-15T11:40:30.279Z,1015.17
2019-05-15T11:41:30.227Z,1015.16
2019-05-15T11:42:30.203Z,1015.12
2019-05-15T11:43:30.156Z,1015.17
2019-05-15T11:44:30.084Z,1015.06
2019-05-15T11:45:30.029Z,1015.07
2019-05-15T11:46:29.982Z,1015.14
2019-05-15T11:47:29.936Z,1015.07
2019-05-15T11:48:30.215Z,1015.04
2019-05-15T11:49:29.833Z,1014.97
2019-05-15T11:50:29.786Z,1015.05
2019-05-15T11:51:29.743Z,1014.98
2019-05-15T11:52:29.688Z,1015.01
2019-05-15T11:53:29.666Z,1015.06
2019-05-15T11:54:29.591Z,1015.02
2019-05-15T11:55:29.536Z,1015.06
2019-05-15T11:56:29.750Z,1015.12
2019-05-15T11:57:39.514Z,1015.06
2019-05-15T11:58:29.413Z,1015.03
2019-05-15T11:59:30.136Z,1015.15
2019-05-15T12:00:30.285Z,1014.98
2019-05-15T12:01:29.243Z,1015.04
2019-05-15T12:02:29.463Z,1014.96
2019-05-15T12:03:29.331Z,1014.91
2019-05-15T12:04:33.829Z,1014.98
2019-05-15T12:05:29.048Z,1014.82
2019-05-15T12:06:29.356Z,1014.92